createdAt,value
2023-04-21T00:00:44.379Z,15.11
2023-04-21T00:03:11.153Z,15.05
2023-04-21T00:05:38.055Z,15.14
2023-04-21T00:08:04.958Z,15.36
2023-04-21T00:10:31.673Z,15.29
2023-04-21T00:12:59.788Z,15.24
2023-04-21T00:15:26.554Z,15.33
2023-04-21T00:17:53.254Z,15.24
2023-04-21T00:20:20.139Z,15.29
2023-04-21T00:22:46.954Z,15.52
2023-04-21T00:25:13.592Z,15.42
2023-04-21T00:27:40.320Z,15.46
2023-04-21T00:30:09.722Z,15.59
2023-04-21T00:32:36.447Z,15.53
2023-04-21T00:35:03.223Z,15.48
2023-04-21T00:37:30.371Z,15.49
2023-04-21T00:39:57.078Z,15.31
2023-04-21T00:42:23.731Z,15.41
2023-04-21T00:44:50.467Z,15.39
2023-04-21T00:47:18.550Z,15.43
2023-04-21T00:49:45.584Z,15.39
2023-04-21T00:52:13.726Z,15.44
2023-04-21T00:54:40.709Z,15.36
2023-04-21T00:57:07.586Z,15.47
2023-04-21T00:59:34.403Z,15.50
2023-04-21T01:02:01.140Z,15.50
2023-04-21T01:04:29.820Z,15.27
2023-04-21T01:06:56.539Z,15.30
2023-04-21T01:09:23.229Z,15.28
2023-04-21T01:12:02.880Z,15.28
2023-04-21T01:14:29.912Z,15.17
2023-04-21T01:16:56.994Z,15.27
2023-04-21T01:19:24.301Z,15.25
2023-04-21T01:21:52.343Z,15.00
2023-04-21T01:24:19.043Z,15.13
2023-04-21T01:26:46.796Z,15.11
2023-04-21T01:29:16.958Z,15.14
2023-04-21T01:31:43.869Z,15.15
2023-04-21T01:34:10.609Z,15.11
2023-04-21T01:36:37.271Z,15.07
2023-04-21T01:39:05.541Z,15.05
2023-04-21T01:41:32.245Z,15.03
2023-04-21T01:43:58.925Z,14.98
2023-04-21T01:46:25.745Z,14.79
2023-04-21T01:48:52.405Z,14.90
2023-04-21T01:51:19.119Z,14.98
2023-04-21T01:53:45.832Z,15.13
2023-04-21T01:56:15.374Z,15.22
2023-04-21T01:58:42.041Z,15.04
2023-04-21T02:01:08.692Z,15.17
2023-04-21T02:03:36.207Z,15.23
2023-04-21T02:06:03.062Z,15.16
2023-04-21T02:08:29.812Z,15.08
2023-04-21T02:10:56.538Z,15.23
2023-04-21T02:13:24.593Z,15.54
2023-04-21T02:15:57.184Z,15.99
2023-04-21T02:18:29.348Z,15.87
2023-04-21T02:20:56.040Z,15.91
2023-04-21T02:23:22.688Z,16.04
2023-04-21T02:25:49.415Z,15.86
2023-04-21T02:28:16.141Z,15.99
2023-04-21T02:30:44.226Z,15.98
2023-04-21T02:33:11.276Z,15.87
2023-04-21T02:35:38.028Z,16.04
2023-04-21T02:38:04.664Z,16.23
2023-04-21T02:40:31.389Z,16.17
2023-04-21T02:42:58.023Z,16.05
2023-04-21T02:45:24.672Z,16.26
2023-04-21T02:47:52.703Z,16.14
2023-04-21T02:50:19.567Z,16.14
2023-04-21T02:52:46.287Z,16.01
2023-04-21T02:55:12.972Z,16.06
2023-04-21T02:57:39.632Z,16.04
2023-04-21T03:00:07.868Z,15.91
2023-04-21T03:02:34.631Z,15.77
2023-04-21T03:05:02.897Z,15.82
2023-04-21T03:07:29.690Z,15.97
2023-04-21T03:09:56.352Z,16.08
2023-04-21T03:12:23.046Z,16.09
2023-04-21T03:14:49.684Z,15.91
2023-04-21T03:17:16.597Z,15.94
2023-04-21T03:19:43.301Z,16.04
2023-04-21T03:22:11.450Z,15.94
2023-04-21T03:24:38.092Z,16.07
2023-04-21T03:27:05.757Z,16.11
2023-04-21T03:29:32.444Z,15.94
2023-04-21T03:31:59.292Z,16.06
2023-04-21T03:34:25.963Z,16.23
2023-04-21T03:36:52.650Z,16.30
2023-04-21T03:39:20.842Z,16.38
2023-04-21T03:41:47.804Z,16.16
2023-04-21T03:44:14.552Z,16.07
2023-04-21T03:46:41.273Z,16.02
2023-04-21T03:49:08.015Z,16.13
2023-04-21T03:51:34.697Z,16.11
2023-04-21T03:54:01.337Z,15.99
2023-04-21T03:56:29.451Z,15.97
2023-04-21T03:58:56.182Z,15.87
2023-04-21T04:01:22.892Z,15.89
2023-04-21T04:03:49.729Z,15.89
2023-04-21T04:06:16.452Z,15.95
2023-04-21T04:08:43.236Z,15.84
2023-04-21T04:11:09.865Z,15.89
2023-04-21T04:13:37.916Z,15.90
2023-04-21T04:16:05.383Z,15.71
2023-04-21T04:18:32.122Z,15.89
2023-04-21T04:20:58.835Z,15.82
2023-04-21T04:23:25.664Z,15.86
2023-04-21T04:25:52.298Z,15.97
2023-04-21T04:28:18.936Z,15.97
2023-04-21T04:30:47.027Z,16.12
2023-04-21T04:33:13.704Z,16.18
2023-04-21T04:35:40.422Z,16.15
2023-04-21T04:38:07.108Z,16.08
2023-04-21T04:40:33.977Z,16.20
2023-04-21T04:43:00.676Z,16.25
2023-04-21T04:45:27.614Z,16.35
2023-04-21T04:47:55.712Z,16.43
2023-04-21T04:50:22.430Z,16.35
2023-04-21T04:52:49.098Z,16.42
2023-04-21T04:55:15.895Z,16.47
2023-04-21T04:57:42.563Z,16.51
2023-04-21T05:00:10.246Z,16.55
2023-04-21T05:02:37.710Z,16.46
2023-04-21T05:05:07.540Z,16.46
2023-04-21T05:07:34.996Z,16.37
2023-04-21T05:10:01.684Z,16.30
2023-04-21T05:12:28.361Z,16.28
2023-04-21T05:14:55.152Z,16.32
2023-04-21T05:17:21.839Z,16.26
2023-04-21T05:19:48.536Z,16.24
2023-04-21T05:22:16.620Z,16.14
2023-04-21T05:24:43.321Z,16.03
2023-04-21T05:27:10.040Z,16.10
2023-04-21T05:29:36.728Z,16.01
2023-04-21T05:32:03.439Z,16.00
2023-04-21T05:34:30.150Z,16.11
2023-04-21T05:36:56.852Z,16.20
2023-04-21T05:39:24.978Z,16.21
2023-04-21T05:41:51.627Z,16.11
2023-04-21T05:44:18.574Z,16.16
2023-04-21T05:46:45.620Z,16.14
2023-04-21T05:49:12.283Z,16.18
2023-04-21T05:51:38.980Z,16.31
2023-04-21T05:54:05.840Z,16.40
2023-04-21T05:56:33.951Z,16.31
2023-04-21T05:59:00.639Z,16.36
2023-04-21T06:01:27.343Z,16.45
2023-04-21T06:03:54.066Z,16.43
2023-04-21T06:06:20.869Z,16.53
2023-04-21T06:08:47.642Z,16.48
2023-04-21T06:11:14.395Z,16.41
2023-04-21T06:13:43.565Z,16.59
2023-04-21T06:16:10.444Z,16.45
2023-04-21T06:18:37.201Z,16.75
2023-04-21T06:21:04.522Z,16.80
2023-04-21T06:23:31.230Z,16.85
2023-04-21T06:26:01.637Z,16.67
2023-04-21T06:28:28.291Z,16.62
2023-04-21T06:30:56.382Z,16.52
2023-04-21T06:33:23.163Z,16.74
2023-04-21T06:35:49.835Z,16.83
2023-04-21T06:38:16.519Z,17.02
2023-04-21T06:40:43.251Z,16.83
2023-04-21T06:43:09.929Z,17.07
2023-04-21T06:45:36.841Z,16.99
2023-04-21T06:48:05.684Z,17.23
2023-04-21T06:50:32.423Z,17.33
2023-04-21T06:52:59.115Z,17.17
2023-04-21T06:55:25.891Z,16.91
2023-04-21T06:57:52.585Z,17.01
2023-04-21T07:00:19.516Z,16.96
2023-04-21T07:02:46.338Z,16.92
2023-04-21T07:05:14.531Z,17.07
2023-04-21T07:07:41.180Z,17.27
2023-04-21T07:10:09.000Z,17.40
2023-04-21T07:12:35.686Z,17.13
2023-04-21T07:15:02.339Z,17.60
2023-04-21T07:17:29.143Z,17.77
2023-04-21T07:19:55.823Z,17.98
2023-04-21T07:22:23.895Z,18.02
2023-04-21T07:24:51.365Z,18.43
2023-04-21T07:27:18.188Z,18.58
2023-04-21T07:29:45.029Z,18.77
2023-04-21T07:32:11.758Z,18.91
2023-04-21T07:34:38.403Z,18.60
2023-04-21T07:37:06.259Z,18.55
2023-04-21T07:39:34.349Z,18.48
2023-04-21T07:42:01.019Z,18.57
2023-04-21T07:44:27.721Z,18.76
2023-04-21T07:46:54.900Z,18.82
2023-04-21T07:49:21.793Z,18.96
2023-04-21T07:51:48.562Z,18.98
2023-04-21T07:54:15.352Z,19.36
2023-04-21T07:56:43.405Z,19.55
2023-04-21T07:59:10.290Z,20.04
2023-04-21T08:01:37.193Z,19.95
2023-04-21T08:04:03.977Z,20.13
2023-04-21T08:06:30.913Z,19.70
2023-04-21T08:08:57.611Z,19.26
2023-04-21T08:11:24.461Z,19.07
2023-04-21T08:13:52.655Z,19.06
2023-04-21T08:16:19.410Z,19.60
2023-04-21T08:18:46.110Z,19.44
2023-04-21T08:21:12.850Z,19.66
2023-04-21T08:23:39.545Z,19.95
2023-04-21T08:26:06.723Z,19.65
2023-04-21T08:28:33.448Z,19.34
2023-04-21T08:31:01.507Z,19.16
2023-04-21T08:33:28.272Z,19.36
2023-04-21T08:36:03.850Z,19.14
2023-04-21T08:38:32.449Z,18.65
2023-04-21T08:40:59.920Z,19.08
2023-04-21T08:43:26.888Z,18.54
2023-04-21T08:45:54.795Z,18.33
2023-04-21T08:48:22.938Z,18.82
2023-04-21T08:50:51.089Z,18.31
2023-04-21T08:53:18.045Z,18.60
2023-04-21T08:55:49.294Z,18.73
2023-04-21T08:58:18.009Z,18.32
2023-04-21T09:00:44.756Z,18.59
2023-04-21T09:03:23.071Z,18.15
2023-04-21T09:06:01.692Z,18.41
2023-04-21T09:08:29.335Z,18.10
2023-04-21T09:10:57.188Z,18.27
2023-04-21T09:13:30.780Z,17.49
2023-04-21T09:15:57.907Z,17.74
2023-04-21T09:18:26.101Z,17.69
2023-04-21T09:21:07.938Z,17.26
2023-04-21T09:23:44.820Z,17.59
2023-04-21T09:26:12.145Z,17.07
2023-04-21T09:28:41.530Z,16.66
2023-04-21T09:31:14.443Z,16.53
2023-04-21T09:33:57.140Z,16.73
2023-04-21T09:36:28.183Z,16.48
2023-04-21T09:41:28.585Z,17.02
2023-04-21T09:43:55.329Z,16.63
2023-04-21T09:46:23.324Z,16.30
2023-04-21T09:48:52.682Z,15.96
2023-04-21T09:51:30.887Z,16.00
2023-04-21T09:54:28.417Z,16.19
2023-04-21T09:56:59.847Z,16.62
2023-04-21T09:59:32.258Z,16.70
2023-04-21T10:02:00.401Z,16.66
2023-04-21T10:04:29.492Z,16.70
2023-04-21T10:06:57.294Z,17.14
2023-04-21T10:09:30.930Z,17.27
2023-04-21T10:11:58.092Z,17.08
2023-04-21T10:14:25.698Z,17.30
2023-04-21T10:16:56.894Z,17.50
2023-04-21T10:19:24.747Z,17.51
2023-04-21T10:21:51.739Z,17.61
2023-04-21T10:24:18.806Z,16.94
2023-04-21T10:26:47.115Z,16.95
2023-04-21T10:29:13.889Z,17.44
2023-04-21T10:31:51.592Z,17.53
2023-04-21T10:34:28.536Z,17.12
2023-04-21T10:37:31.416Z,17.53
2023-04-21T10:39:58.100Z,17.18
2023-04-21T10:42:28.921Z,17.35
2023-04-21T10:45:09.815Z,17.09
2023-04-21T10:47:41.849Z,17.16
2023-04-21T10:50:21.315Z,16.24
2023-04-21T10:52:54.056Z,16.20
2023-04-21T10:55:21.946Z,16.24
2023-04-21T10:57:50.502Z,16.04
2023-04-21T11:00:19.314Z,16.61
2023-04-21T11:02:57.632Z,17.03
2023-04-21T11:05:29.422Z,16.98
2023-04-21T11:08:03.498Z,17.07
2023-04-21T11:10:30.341Z,17.40
2023-04-21T11:12:58.902Z,17.81
2023-04-21T11:15:25.782Z,18.09
2023-04-21T11:17:52.679Z,17.92
2023-04-21T11:20:19.627Z,18.15
2023-04-21T11:22:46.335Z,18.04
2023-04-21T11:25:17.706Z,18.73
2023-04-21T11:27:53.566Z,19.44
2023-04-21T11:30:21.922Z,19.47
2023-04-21T11:32:54.340Z,19.70
2023-04-21T11:35:21.143Z,19.02
2023-04-21T11:37:50.282Z,18.73
2023-04-21T11:40:17.050Z,18.19
2023-04-21T11:42:44.556Z,18.37
2023-04-21T11:45:18.293Z,17.96
2023-04-21T11:47:48.108Z,17.79
2023-04-21T11:50:30.388Z,17.53
2023-04-21T11:52:57.138Z,17.71
2023-04-21T11:55:23.902Z,17.41
2023-04-21T11:57:50.766Z,17.91
2023-04-21T12:00:18.705Z,17.52
2023-04-21T12:02:56.281Z,17.77
2023-04-21T12:05:23.233Z,17.57
2023-04-21T12:07:50.086Z,18.09
2023-04-21T12:10:19.246Z,18.00
2023-04-21T12:12:45.974Z,18.44
2023-04-21T12:15:18.574Z,17.62
2023-04-21T12:17:46.519Z,17.58
2023-04-21T12:20:16.118Z,18.02
2023-04-21T12:22:42.820Z,17.76
2023-04-21T12:25:12.369Z,17.58
2023-04-21T12:27:48.113Z,16.85
2023-04-21T12:30:15.072Z,16.45
2023-04-21T12:32:41.811Z,17.51
2023-04-21T12:35:09.413Z,17.12
2023-04-21T12:37:37.748Z,17.68
2023-04-21T12:40:05.424Z,17.88
2023-04-21T12:42:32.139Z,17.51
2023-04-21T12:44:58.823Z,16.81
2023-04-21T12:47:25.684Z,16.61
2023-04-21T12:49:52.412Z,16.43
2023-04-21T12:52:19.104Z,16.82
2023-04-21T12:54:47.152Z,17.24
2023-04-21T12:57:14.350Z,17.27
2023-04-21T12:59:41.136Z,17.20
2023-04-21T13:02:07.919Z,17.22
2023-04-21T13:04:34.788Z,17.90
2023-04-21T13:07:01.645Z,18.49
2023-04-21T13:09:28.556Z,18.80
2023-04-21T13:11:56.822Z,18.78
2023-04-21T13:14:23.657Z,19.49
2023-04-21T13:16:50.558Z,19.70
2023-04-21T13:19:17.542Z,20.46
2023-04-21T13:21:44.211Z,20.89
2023-04-21T13:24:14.296Z,20.66
2023-04-21T13:26:41.451Z,20.86
2023-04-21T13:29:09.550Z,21.01
2023-04-21T13:31:36.446Z,20.97
2023-04-21T13:34:03.299Z,21.19
2023-04-21T13:36:30.144Z,20.55
2023-04-21T13:38:56.834Z,20.12
2023-04-21T13:41:23.546Z,20.33
2023-04-21T13:43:50.272Z,20.18
2023-04-21T13:46:19.885Z,19.79
2023-04-21T13:48:46.728Z,20.24
2023-04-21T13:51:13.600Z,20.20
2023-04-21T13:53:40.277Z,20.66
2023-04-21T13:56:06.948Z,20.10
2023-04-21T13:58:33.626Z,19.86
2023-04-21T14:01:00.372Z,20.23
2023-04-21T14:03:28.614Z,20.45
2023-04-21T14:05:55.803Z,20.50
2023-04-21T14:08:22.849Z,20.49
2023-04-21T14:10:49.557Z,19.59
2023-04-21T14:13:33.140Z,20.29
2023-04-21T14:16:02.776Z,20.55
2023-04-21T14:18:30.902Z,20.79
2023-04-21T14:20:57.664Z,21.54
2023-04-21T14:23:24.504Z,21.81
2023-04-21T14:25:53.023Z,21.42
2023-04-21T14:28:21.161Z,20.23
2023-04-21T14:30:47.888Z,20.08
2023-04-21T14:33:14.569Z,19.70
2023-04-21T14:35:42.691Z,19.60
2023-04-21T14:38:09.415Z,19.77
2023-04-21T14:40:36.115Z,20.05
2023-04-21T14:43:02.908Z,19.87
2023-04-21T14:45:29.853Z,19.96
2023-04-21T14:47:56.576Z,19.67
2023-04-21T14:50:23.398Z,20.45
2023-04-21T14:52:51.515Z,20.86
2023-04-21T14:55:18.247Z,20.38
2023-04-21T14:57:44.993Z,20.40
2023-04-21T15:00:12.758Z,19.90
2023-04-21T15:02:40.571Z,20.30
2023-04-21T15:05:08.232Z,19.78
2023-04-21T15:07:34.990Z,20.22
2023-04-21T15:10:03.324Z,19.92
2023-04-21T15:12:30.153Z,20.89
2023-04-21T15:14:56.961Z,20.67
2023-04-21T15:17:23.762Z,20.35
2023-04-21T15:19:50.680Z,20.75
2023-04-21T15:22:17.478Z,21.12
2023-04-21T15:24:44.252Z,20.77
2023-04-21T15:27:12.313Z,20.67
2023-04-21T15:29:39.019Z,20.68
2023-04-21T15:32:05.697Z,21.39
2023-04-21T15:34:33.028Z,20.69
2023-04-21T15:36:59.709Z,20.54
2023-04-21T15:39:26.448Z,20.56
2023-04-21T15:41:53.670Z,20.58
2023-04-21T15:44:21.880Z,21.09
2023-04-21T15:46:48.708Z,20.49
2023-04-21T15:49:15.528Z,19.53
2023-04-21T15:51:42.555Z,19.71
2023-04-21T15:54:09.409Z,20.21
2023-04-21T15:56:36.113Z,19.93
2023-04-21T15:59:02.798Z,20.23
2023-04-21T16:01:30.937Z,20.73
2023-04-21T16:03:58.585Z,20.23
2023-04-21T16:06:25.450Z,20.28
2023-04-21T16:08:52.333Z,20.14
2023-04-21T16:11:19.100Z,20.54
2023-04-21T16:13:45.910Z,20.69
2023-04-21T16:16:12.710Z,20.81
2023-04-21T16:18:41.162Z,20.49
2023-04-21T16:21:08.744Z,20.62
2023-04-21T16:23:35.554Z,20.78
2023-04-21T16:26:02.350Z,21.23
2023-04-21T16:28:29.005Z,20.63
2023-04-21T16:30:55.802Z,20.67
2023-04-21T16:33:22.557Z,20.22
2023-04-21T16:35:50.918Z,20.04
2023-04-21T16:38:17.660Z,19.85
2023-04-21T16:40:44.433Z,19.81
2023-04-21T16:43:11.238Z,19.85
2023-04-21T16:45:38.071Z,19.88
2023-04-21T16:48:05.108Z,20.12
2023-04-21T16:50:32.014Z,20.13
2023-04-21T16:53:00.334Z,20.04
2023-04-21T16:55:27.954Z,20.53
2023-04-21T16:57:54.685Z,19.45
2023-04-21T17:00:21.419Z,19.27
2023-04-21T17:02:48.174Z,18.83
2023-04-21T17:05:15.048Z,19.46
2023-04-21T17:07:41.777Z,19.36
2023-04-21T17:10:10.673Z,19.61
2023-04-21T17:12:37.412Z,19.99
2023-04-21T17:15:04.581Z,19.90
2023-04-21T17:17:39.976Z,19.71
2023-04-21T17:20:08.771Z,19.50
2023-04-21T17:22:35.465Z,18.92
2023-04-21T17:25:02.342Z,19.49
2023-04-21T17:27:30.706Z,19.73
2023-04-21T17:29:57.511Z,19.52
2023-04-21T17:32:24.294Z,19.43
2023-04-21T17:34:51.078Z,19.21
2023-04-21T17:37:17.726Z,19.02
2023-04-21T17:39:44.560Z,18.42
2023-04-21T17:42:11.269Z,18.49
2023-04-21T17:44:39.599Z,17.97
2023-04-21T17:47:06.418Z,18.23
2023-04-21T17:49:33.173Z,17.90
2023-04-21T17:51:59.931Z,18.06
2023-04-21T17:54:26.877Z,17.93
2023-04-21T17:56:53.639Z,17.95
2023-04-21T17:59:20.580Z,17.92
2023-04-21T18:01:48.831Z,18.06
2023-04-21T18:04:15.692Z,17.99
2023-04-21T18:06:42.707Z,17.79
2023-04-21T18:09:09.564Z,17.56
2023-04-21T18:11:36.455Z,17.79
2023-04-21T18:14:03.137Z,17.96
2023-04-21T18:16:29.956Z,18.09
2023-04-21T18:18:58.138Z,17.97
2023-04-21T18:21:25.053Z,18.00
2023-04-21T18:23:51.799Z,18.33
2023-04-21T18:26:18.506Z,18.10
2023-04-21T18:28:45.235Z,18.18
2023-04-21T18:31:12.042Z,18.16
2023-04-21T18:33:38.890Z,18.19
2023-04-21T18:36:08.184Z,18.22
2023-04-21T18:38:34.893Z,17.90
2023-04-21T18:41:01.596Z,18.09
2023-04-21T18:43:28.560Z,18.06
2023-04-21T18:45:55.364Z,17.91
2023-04-21T18:48:22.014Z,18.12
2023-04-21T18:50:48.762Z,18.17
2023-04-21T18:53:16.812Z,18.34
2023-04-21T18:55:43.486Z,18.79
2023-04-21T18:58:10.126Z,18.90
2023-04-21T19:00:36.821Z,19.06
2023-04-21T19:03:04.770Z,19.10
2023-04-21T19:05:31.975Z,18.65
2023-04-21T19:07:58.745Z,18.45
2023-04-21T19:10:27.069Z,18.25
2023-04-21T19:12:54.278Z,18.31
2023-04-21T19:15:22.208Z,17.97
2023-04-21T19:17:48.977Z,17.91
2023-04-21T19:20:15.830Z,17.85
2023-04-21T19:22:42.707Z,17.76
2023-04-21T19:25:10.415Z,17.71
2023-04-21T19:27:40.741Z,17.68
2023-04-21T19:30:08.660Z,17.25
2023-04-21T19:32:35.466Z,17.20
2023-04-21T19:35:02.168Z,17.41
2023-04-21T19:37:28.910Z,17.25
2023-04-21T19:39:55.672Z,17.62
2023-04-21T19:42:22.338Z,17.22
2023-04-21T19:44:50.622Z,17.32
2023-04-21T19:47:17.339Z,17.07
2023-04-21T19:49:44.091Z,17.02
2023-04-21T19:52:10.833Z,17.04
2023-04-21T19:54:37.900Z,17.07
2023-04-21T19:57:04.869Z,17.01
2023-04-21T19:59:31.539Z,17.02
2023-04-21T20:01:59.823Z,17.02
2023-04-21T20:04:27.012Z,16.92
2023-04-21T20:06:53.738Z,16.78
2023-04-21T20:09:20.441Z,16.92
2023-04-21T20:11:47.080Z,17.06
2023-04-21T20:14:13.738Z,16.96
2023-04-21T20:16:40.573Z,17.00
2023-04-21T20:19:08.719Z,16.78
2023-04-21T20:21:35.496Z,16.77
2023-04-21T20:24:02.204Z,16.60
2023-04-21T20:26:29.375Z,16.69
2023-04-21T20:28:56.137Z,16.69
2023-04-21T20:31:22.827Z,16.95
2023-04-21T20:33:49.564Z,16.76
2023-04-21T20:36:17.969Z,17.03
2023-04-21T20:38:44.634Z,16.89
2023-04-21T20:41:11.299Z,16.94
2023-04-21T20:43:38.066Z,17.02
2023-04-21T20:46:04.740Z,16.79
2023-04-21T20:48:31.389Z,16.82
2023-04-21T20:50:58.102Z,16.96
2023-04-21T20:53:26.280Z,16.76
2023-04-21T20:55:52.993Z,16.81
2023-04-21T20:58:19.754Z,17.03
2023-04-21T21:00:46.557Z,16.76
2023-04-21T21:03:13.371Z,16.84
2023-04-21T21:05:40.598Z,16.88
2023-04-21T21:08:07.720Z,16.90
2023-04-21T21:10:35.900Z,16.97
2023-04-21T21:13:02.719Z,16.89
2023-04-21T21:15:29.819Z,16.89
2023-04-21T21:17:56.568Z,16.93
2023-04-21T21:20:23.384Z,16.84
2023-04-21T21:22:50.054Z,16.65
2023-04-21T21:25:16.862Z,16.67
2023-04-21T21:27:44.972Z,16.72
2023-04-21T21:30:12.182Z,16.72
2023-04-21T21:32:38.910Z,16.63
2023-04-21T21:35:06.484Z,16.52
2023-04-21T21:37:33.251Z,16.55
2023-04-21T21:39:59.999Z,16.47
2023-04-21T21:42:26.653Z,16.50
2023-04-21T21:44:54.689Z,16.47
2023-04-21T21:47:21.394Z,16.55
2023-04-21T21:49:48.599Z,16.56
2023-04-21T21:52:15.309Z,16.60
2023-04-21T21:54:41.978Z,16.68
2023-04-21T21:57:08.708Z,16.59
2023-04-21T21:59:35.586Z,16.71
2023-04-21T22:02:03.964Z,16.75
2023-04-21T22:04:30.862Z,16.55
2023-04-21T22:06:57.562Z,16.67
2023-04-21T22:09:24.230Z,16.59
2023-04-21T22:11:50.948Z,16.72
2023-04-21T22:14:23.415Z,16.73
2023-04-21T22:16:50.767Z,16.84
2023-04-21T22:19:19.110Z,16.73
2023-04-21T22:21:46.022Z,16.71
2023-04-21T22:24:13.045Z,16.65
2023-04-21T22:26:39.817Z,16.58
2023-04-21T22:29:06.658Z,16.58
2023-04-21T22:31:33.378Z,16.61
2023-04-21T22:34:00.089Z,16.54
2023-04-21T22:36:28.236Z,16.55
2023-04-21T22:38:54.989Z,16.54
2023-04-21T22:41:21.730Z,16.48
2023-04-21T22:43:48.419Z,16.61
2023-04-21T22:46:15.324Z,16.82
2023-04-21T22:48:42.042Z,16.75
2023-04-21T22:51:08.740Z,16.57
2023-04-21T22:53:37.004Z,16.38
2023-04-21T22:56:03.887Z,16.29
2023-04-21T22:58:30.619Z,16.13
2023-04-21T23:00:57.290Z,16.00
2023-04-21T23:03:24.115Z,16.09
2023-04-21T23:05:51.117Z,16.03
2023-04-21T23:08:17.793Z,16.07
2023-04-21T23:10:45.908Z,15.95
2023-04-21T23:13:12.685Z,15.99
2023-04-21T23:15:39.404Z,15.87
2023-04-21T23:18:06.270Z,15.80
2023-04-21T23:20:33.060Z,15.80
2023-04-21T23:22:59.919Z,15.63
2023-04-21T23:25:26.570Z,15.69
2023-04-21T23:27:54.694Z,15.69
2023-04-21T23:30:21.340Z,15.79
2023-04-21T23:32:48.072Z,15.85
2023-04-21T23:35:14.803Z,16.02
2023-04-21T23:37:41.489Z,15.94
2023-04-21T23:40:09.168Z,15.75
2023-04-21T23:42:36.193Z,15.98
2023-04-21T23:45:04.946Z,15.98
2023-04-21T23:47:31.599Z,15.97
2023-04-21T23:49:58.822Z,16.01
2023-04-21T23:52:25.952Z,15.93
2023-04-21T23:54:52.738Z,15.89
2023-04-21T23:57:19.413Z,15.70
2023-04-21T23:59:46.200Z,15.87
